CPA289 VHHH-EDDF
Flight info
| Callsign | CPA289 |
|---|---|
| Flight time | N/A |
| Altitude | 30100 |
| Route | BEKOL A461 SHL W22 TEPID W24 OSNOV G586 QP B330 ELKAL W179 IRVED/K0943S0980 W179 IGNAK/K0943S0950 W179 WFX/K0937S0980 W179 OMBON W195 VIDEK/K0935S0950 W195 LAXAL/K0928S0980 W195 IDOPA W197 ANDIM B215 IBANO G470 AKLAS W192 FKG/K0902S1040 A368 SARIN/K0902F340 N161 RELGE/K0909F360 N161 GASBI/N0489F360 N161 LEYLA T916 MATAL DCT TABAS DCT REBLO UM11 CRM UL746 ODERO DCT OPT DCT IRLOX DCT BALUX/N0486F380 DCT TEKNO DCT ABETI DCT SUBEN DCT AKINI T161 DEBHI DEBHI1C |
| Aircraft | B77W/H-SDE1E2E3FGHIJ2J3J4J5M1RWXY/LB1D1 |
Departure
| Time | 2026-05-07 12:25 |
|---|---|
| Airport | Hong Kong International Airport (VHHH) |
Arrival
| Time | N/A |
|---|---|
| Airport | Frankfurt Main Airport (EDDF) |
| Time | Latitude | Longitude | Altitude | Speed | Heading |
|---|---|---|---|---|---|
| 2026-05-07 11:54 | 22.31045 | 113.92711 | 37 ft | 0 kts | 296° |
| 2026-05-07 12:10 | 22.31045 | 113.92712 | 37 ft | 1 kts | 296° |
| 2026-05-07 12:11 | 22.31034 | 113.92736 | 35 ft | 4 kts | 296° |
| 2026-05-07 12:11 | 22.31023 | 113.92761 | 34 ft | 3 kts | 296° |
| 2026-05-07 12:11 | 22.31014 | 113.92783 | 33 ft | 4 kts | 274° |
| 2026-05-07 12:11 | 22.31020 | 113.92808 | 33 ft | 4 kts | 226° |
| 2026-05-07 12:12 | 22.31040 | 113.92823 | 32 ft | 4 kts | 206° |
| 2026-05-07 12:12 | 22.31064 | 113.92836 | 34 ft | 3 kts | 206° |
| 2026-05-07 12:12 | 22.31067 | 113.92837 | 34 ft | 0 kts | 206° |
| 2026-05-07 12:16 | 22.31065 | 113.92836 | 34 ft | 1 kts | 206° |
| 2026-05-07 12:16 | 22.31037 | 113.92822 | 34 ft | 8 kts | 206° |
| 2026-05-07 12:16 | 22.30977 | 113.92791 | 37 ft | 10 kts | 206° |
| 2026-05-07 12:16 | 22.30909 | 113.92754 | 37 ft | 12 kts | 206° |
| 2026-05-07 12:17 | 22.30840 | 113.92703 | 37 ft | 12 kts | 234° |
| 2026-05-07 12:17 | 22.30806 | 113.92612 | 37 ft | 14 kts | 251° |
| 2026-05-07 12:17 | 22.30772 | 113.92508 | 37 ft | 16 kts | 251° |
| 2026-05-07 12:17 | 22.30732 | 113.92386 | 37 ft | 19 kts | 250° |
| 2026-05-07 12:18 | 22.30685 | 113.92243 | 37 ft | 22 kts | 251° |
| 2026-05-07 12:18 | 22.30634 | 113.92080 | 37 ft | 24 kts | 251° |
| 2026-05-07 12:18 | 22.30577 | 113.91903 | 37 ft | 25 kts | 251° |
| 2026-05-07 12:18 | 22.30519 | 113.91723 | 37 ft | 25 kts | 251° |
| 2026-05-07 12:19 | 22.30461 | 113.91544 | 37 ft | 25 kts | 251° |
| 2026-05-07 12:19 | 22.30403 | 113.91365 | 37 ft | 25 kts | 250° |
| 2026-05-07 12:19 | 22.30344 | 113.91185 | 37 ft | 25 kts | 251° |
| 2026-05-07 12:19 | 22.30287 | 113.91006 | 37 ft | 25 kts | 251° |
| 2026-05-07 12:20 | 22.30229 | 113.90827 | 37 ft | 25 kts | 251° |
| 2026-05-07 12:20 | 22.30171 | 113.90647 | 37 ft | 25 kts | 251° |
| 2026-05-07 12:20 | 22.30112 | 113.90468 | 37 ft | 25 kts | 251° |
| 2026-05-07 12:20 | 22.30056 | 113.90289 | 37 ft | 25 kts | 250° |
| 2026-05-07 12:21 | 22.29997 | 113.90110 | 37 ft | 25 kts | 251° |
| 2026-05-07 12:21 | 22.29941 | 113.89930 | 37 ft | 25 kts | 251° |
| 2026-05-07 12:21 | 22.29891 | 113.89775 | 37 ft | 14 kts | 251° |
| 2026-05-07 12:21 | 22.29823 | 113.89736 | 37 ft | 12 kts | 166° |
| 2026-05-07 12:22 | 22.29752 | 113.89761 | 37 ft | 3 kts | 161° |
| 2026-05-07 12:22 | 22.29750 | 113.89762 | 37 ft | 0 kts | 161° |
| 2026-05-07 12:22 | 22.29745 | 113.89764 | 37 ft | 2 kts | 161° |
| 2026-05-07 12:23 | 22.29708 | 113.89777 | 36 ft | 11 kts | 161° |
| 2026-05-07 12:23 | 22.29635 | 113.89805 | 34 ft | 8 kts | 156° |
| 2026-05-07 12:23 | 22.29634 | 113.89854 | 34 ft | 8 kts | 63° |
| 2026-05-07 12:23 | 22.29644 | 113.89881 | 35 ft | 0 kts | 71° |
| 2026-05-07 12:24 | 22.29682 | 113.89999 | 35 ft | 43 kts | 71° |
| 2026-05-07 12:24 | 22.29866 | 113.90568 | 35 ft | 116 kts | 71° |
| 2026-05-07 12:24 | 22.30204 | 113.91615 | 37 ft | 177 kts | 71° |
| 2026-05-07 12:25 | 22.30653 | 113.93021 | 195 ft | 207 kts | 73° |
| 2026-05-07 12:25 | 22.31116 | 113.94482 | 805 ft | 206 kts | 72° |
| 2026-05-07 12:25 | 22.31589 | 113.95969 | 1307 ft | 212 kts | 72° |
| 2026-05-07 12:25 | 22.32072 | 113.97482 | 1737 ft | 213 kts | 73° |
| 2026-05-07 12:26 | 22.32559 | 113.99001 | 2169 ft | 215 kts | 72° |
| 2026-05-07 12:26 | 22.33057 | 114.00528 | 2479 ft | 221 kts | 71° |
| 2026-05-07 12:26 | 22.33572 | 114.02111 | 2805 ft | 226 kts | 72° |
| 2026-05-07 12:26 | 22.33838 | 114.03785 | 3170 ft | 227 kts | 94° |
| 2026-05-07 12:27 | 22.33548 | 114.05451 | 3585 ft | 227 kts | 113° |
| 2026-05-07 12:27 | 22.32714 | 114.06884 | 3956 ft | 227 kts | 134° |
| 2026-05-07 12:27 | 22.31472 | 114.07970 | 4227 ft | 236 kts | 152° |
| 2026-05-07 12:27 | 22.29878 | 114.08615 | 4370 ft | 253 kts | 169° |
| 2026-05-07 12:28 | 22.28075 | 114.08763 | 4586 ft | 266 kts | 182° |
| 2026-05-07 12:28 | 22.26197 | 114.08712 | 4971 ft | 274 kts | 181° |
| 2026-05-07 12:28 | 22.24278 | 114.08688 | 5495 ft | 277 kts | 181° |
| 2026-05-07 12:28 | 22.22361 | 114.08670 | 6083 ft | 278 kts | 182° |
| 2026-05-07 12:29 | 22.20421 | 114.08651 | 6625 ft | 280 kts | 182° |
| 2026-05-07 12:29 | 22.18486 | 114.08853 | 7022 ft | 284 kts | 161° |
| 2026-05-07 12:29 | 22.16831 | 114.10020 | 7371 ft | 291 kts | 130° |
| 2026-05-07 12:29 | 22.15908 | 114.11958 | 7802 ft | 294 kts | 102° |
| 2026-05-07 12:30 | 22.15703 | 114.14155 | 8181 ft | 298 kts | 94° |
| 2026-05-07 12:30 | 22.15579 | 114.16428 | 8484 ft | 308 kts | 94° |
| 2026-05-07 12:30 | 22.15446 | 114.18758 | 8918 ft | 314 kts | 94° |
| 2026-05-07 12:30 | 22.15305 | 114.21121 | 9456 ft | 317 kts | 95° |
| 2026-05-07 12:31 | 22.15161 | 114.23473 | 9978 ft | 319 kts | 95° |
| 2026-05-07 12:31 | 22.15114 | 114.25896 | 10424 ft | 320 kts | 83° |
| 2026-05-07 12:31 | 22.15538 | 114.28245 | 10820 ft | 326 kts | 75° |
| 2026-05-07 12:31 | 22.16143 | 114.30665 | 11004 ft | 343 kts | 75° |
| 2026-05-07 12:32 | 22.16762 | 114.33229 | 11151 ft | 361 kts | 76° |
| 2026-05-07 12:32 | 22.17366 | 114.35925 | 11287 ft | 378 kts | 76° |
| 2026-05-07 12:32 | 22.18291 | 114.38619 | 11368 ft | 390 kts | 56° |
| 2026-05-07 12:32 | 22.20143 | 114.40775 | 11695 ft | 396 kts | 33° |
| 2026-05-07 12:33 | 22.25352 | 114.42343 | 12769 ft | 394 kts | 352° |
| 2026-05-07 12:33 | 22.28041 | 114.41873 | 13264 ft | 394 kts | 347° |
| 2026-05-07 12:33 | 22.30739 | 114.41310 | 13771 ft | 397 kts | 345° |
| 2026-05-07 12:34 | 22.33355 | 114.40384 | 14198 ft | 397 kts | 330° |
| 2026-05-07 12:34 | 22.35606 | 114.38677 | 14724 ft | 395 kts | 314° |
| 2026-05-07 12:34 | 22.37382 | 114.36432 | 15239 ft | 393 kts | 305° |
| 2026-05-07 12:34 | 22.39056 | 114.34065 | 15663 ft | 399 kts | 306° |
| 2026-05-07 12:35 | 22.40779 | 114.31699 | 16159 ft | 402 kts | 307° |
| 2026-05-07 12:35 | 22.42522 | 114.29326 | 16725 ft | 404 kts | 307° |
| 2026-05-07 12:35 | 22.44274 | 114.26946 | 17262 ft | 406 kts | 307° |
| 2026-05-07 12:35 | 22.46036 | 114.24551 | 17781 ft | 408 kts | 307° |
| 2026-05-07 12:36 | 22.47808 | 114.22141 | 18281 ft | 410 kts | 307° |
| 2026-05-07 12:36 | 22.49590 | 114.19717 | 18695 ft | 413 kts | 307° |
| 2026-05-07 12:36 | 22.51380 | 114.17281 | 19128 ft | 414 kts | 307° |
| 2026-05-07 12:36 | 22.53296 | 114.14991 | 19515 ft | 419 kts | 315° |
| 2026-05-07 12:37 | 22.55541 | 114.13013 | 19918 ft | 423 kts | 322° |
| 2026-05-07 12:37 | 22.58007 | 114.11319 | 20335 ft | 427 kts | 330° |
| 2026-05-07 12:37 | 22.60694 | 114.09915 | 20763 ft | 429 kts | 332° |
| 2026-05-07 12:37 | 22.63414 | 114.08557 | 21175 ft | 432 kts | 333° |
| 2026-05-07 12:38 | 22.66154 | 114.07190 | 21574 ft | 435 kts | 333° |
| 2026-05-07 12:38 | 22.68903 | 114.05807 | 21965 ft | 437 kts | 332° |
| 2026-05-07 12:38 | 22.71670 | 114.04402 | 22353 ft | 440 kts | 332° |
| 2026-05-07 12:38 | 22.74452 | 114.02982 | 22755 ft | 442 kts | 332° |
| 2026-05-07 12:39 | 22.77239 | 114.01553 | 23136 ft | 445 kts | 332° |
| 2026-05-07 12:39 | 22.80039 | 114.00115 | 23513 ft | 447 kts | 332° |
| 2026-05-07 12:39 | 22.82856 | 113.98667 | 23877 ft | 447 kts | 332° |
| 2026-05-07 12:39 | 22.85682 | 113.97215 | 24217 ft | 449 kts | 332° |
| 2026-05-07 12:40 | 22.88507 | 113.95764 | 24513 ft | 451 kts | 332° |
| 2026-05-07 12:40 | 22.91350 | 113.94299 | 24819 ft | 453 kts | 332° |
| 2026-05-07 12:40 | 22.94200 | 113.92817 | 25122 ft | 455 kts | 332° |
| 2026-05-07 12:40 | 22.97057 | 113.91328 | 25425 ft | 456 kts | 332° |
| 2026-05-07 12:41 | 22.99922 | 113.89834 | 25728 ft | 458 kts | 332° |
| 2026-05-07 12:41 | 23.02773 | 113.88349 | 26016 ft | 460 kts | 332° |
| 2026-05-07 12:41 | 23.05653 | 113.86828 | 26300 ft | 461 kts | 330° |
| 2026-05-07 12:41 | 23.08404 | 113.85046 | 26567 ft | 461 kts | 324° |
| 2026-05-07 12:42 | 23.11003 | 113.83000 | 26849 ft | 462 kts | 320° |
| 2026-05-07 12:42 | 23.13425 | 113.80707 | 27130 ft | 462 kts | 315° |
| 2026-05-07 12:42 | 23.15731 | 113.78274 | 27432 ft | 462 kts | 314° |
| 2026-05-07 12:42 | 23.18039 | 113.75824 | 27700 ft | 464 kts | 314° |
| 2026-05-07 12:43 | 23.20353 | 113.73371 | 27955 ft | 466 kts | 315° |
| 2026-05-07 12:43 | 23.22683 | 113.70910 | 28204 ft | 467 kts | 315° |
| 2026-05-07 12:43 | 23.25023 | 113.68448 | 28444 ft | 469 kts | 315° |
| 2026-05-07 12:43 | 23.27375 | 113.65978 | 28673 ft | 470 kts | 315° |
| 2026-05-07 12:44 | 23.29732 | 113.63506 | 28890 ft | 472 kts | 315° |
| 2026-05-07 12:44 | 23.32096 | 113.61025 | 29101 ft | 473 kts | 315° |
| 2026-05-07 12:44 | 23.34470 | 113.58533 | 29285 ft | 475 kts | 315° |
| 2026-05-07 12:44 | 23.36854 | 113.56030 | 29485 ft | 476 kts | 315° |
| 2026-05-07 12:45 | 23.39241 | 113.53521 | 29690 ft | 477 kts | 315° |
| 2026-05-07 12:45 | 23.41627 | 113.51012 | 29959 ft | 476 kts | 315° |
| 2026-05-07 12:45 | 23.44005 | 113.48509 | 30215 ft | 475 kts | 315° |
| 2026-05-07 12:45 | 23.46381 | 113.46006 | 30443 ft | 475 kts | 315° |
| 2026-05-07 12:46 | 23.48754 | 113.43506 | 30655 ft | 475 kts | 315° |
| 2026-05-07 12:46 | 23.51132 | 113.41001 | 30836 ft | 476 kts | 314° |
| 2026-05-07 12:46 | 23.53481 | 113.38524 | 30980 ft | 477 kts | 314° |
| 2026-05-07 12:46 | 23.55852 | 113.35996 | 31201 ft | 476 kts | 314° |
| 2026-05-07 12:47 | 23.58202 | 113.33464 | 31425 ft | 475 kts | 314° |
| 2026-05-07 12:47 | 23.60550 | 113.30930 | 31627 ft | 475 kts | 314° |
| 2026-05-07 12:47 | 23.62928 | 113.28360 | 31825 ft | 475 kts | 313° |
| 2026-05-07 12:47 | 23.65075 | 113.25681 | 31989 ft | 474 kts | 306° |
| 2026-05-07 12:48 | 23.68688 | 113.19654 | 32080 ft | 474 kts | 297° |
| 2026-05-07 12:48 | 23.71418 | 113.13129 | 32112 ft | 471 kts | 293° |
| 2026-05-07 12:49 | 23.74063 | 113.06585 | 32103 ft | 471 kts | 294° |
| 2026-05-07 12:49 | 23.76520 | 113.01314 | 32079 ft | 468 kts | 307° |
| 2026-05-07 12:50 | 23.78784 | 112.98764 | 32113 ft | 471 kts | 320° |
| 2026-05-07 12:50 | 23.81511 | 112.96758 | 32103 ft | 475 kts | 330° |
| 2026-05-07 12:50 | 23.84606 | 112.95443 | 32134 ft | 480 kts | 342° |
| 2026-05-07 12:50 | 23.87845 | 112.94527 | 32115 ft | 482 kts | 341° |
| 2026-05-07 12:51 | 23.94306 | 112.92499 | 32104 ft | 484 kts | 340° |
| 2026-05-07 12:51 | 24.00754 | 112.90342 | 32109 ft | 485 kts | 339° |
| 2026-05-07 12:52 | 24.07204 | 112.88190 | 32116 ft | 484 kts | 340° |
| 2026-05-07 12:52 | 24.13637 | 112.86054 | 32105 ft | 482 kts | 340° |
| 2026-05-07 12:53 | 24.20041 | 112.83930 | 32132 ft | 480 kts | 339° |
| 2026-05-07 12:53 | 24.26424 | 112.81812 | 32123 ft | 478 kts | 339° |
| 2026-05-07 12:54 | 24.32790 | 112.79697 | 32127 ft | 477 kts | 339° |
| 2026-05-07 12:54 | 24.39156 | 112.77579 | 32111 ft | 478 kts | 339° |
| 2026-05-07 12:55 | 24.45124 | 112.74677 | 32156 ft | 465 kts | 316° |
| 2026-05-07 12:55 | 24.47305 | 112.72087 | 32160 ft | 462 kts | 302° |
| 2026-05-07 12:55 | 24.48912 | 112.69040 | 32137 ft | 462 kts | 293° |
| 2026-05-07 12:56 | 24.49985 | 112.65719 | 32128 ft | 462 kts | 279° |
| 2026-05-07 12:56 | 24.50370 | 112.62240 | 32181 ft | 460 kts | 275° |
| 2026-05-07 12:56 | 24.50948 | 112.55196 | 32148 ft | 466 kts | 275° |
| 2026-05-07 12:57 | 24.51571 | 112.48071 | 32155 ft | 470 kts | 276° |
| 2026-05-07 12:57 | 24.52239 | 112.40965 | 32140 ft | 463 kts | 276° |
| 2026-05-07 12:58 | 24.52907 | 112.34011 | 32141 ft | 460 kts | 276° |
| 2026-05-07 12:58 | 24.53579 | 112.27014 | 32133 ft | 461 kts | 276° |
| 2026-05-07 12:59 | 24.54248 | 112.19984 | 32153 ft | 465 kts | 276° |
| 2026-05-07 12:59 | 24.54918 | 112.12912 | 32165 ft | 466 kts | 276° |
| 2026-05-07 13:00 | 24.55586 | 112.05814 | 32166 ft | 466 kts | 276° |
| 2026-05-07 13:00 | 24.56248 | 111.98734 | 32158 ft | 466 kts | 276° |
| 2026-05-07 13:01 | 24.56906 | 111.91667 | 32162 ft | 464 kts | 276° |
| 2026-05-07 13:01 | 24.57561 | 111.84614 | 32158 ft | 463 kts | 276° |
| 2026-05-07 13:02 | 24.58208 | 111.77588 | 32149 ft | 462 kts | 276° |
| 2026-05-07 13:02 | 24.58852 | 111.70569 | 32147 ft | 461 kts | 276° |
| 2026-05-07 13:03 | 24.59492 | 111.63559 | 32150 ft | 461 kts | 276° |
| 2026-05-07 13:03 | 24.60128 | 111.56554 | 32157 ft | 460 kts | 276° |
| 2026-05-07 13:04 | 24.60761 | 111.49542 | 32167 ft | 461 kts | 276° |
| 2026-05-07 13:04 | 24.61393 | 111.42517 | 32155 ft | 463 kts | 276° |
| 2026-05-07 13:05 | 24.62019 | 111.35509 | 32168 ft | 464 kts | 276° |
| 2026-05-07 13:05 | 24.62647 | 111.28444 | 32153 ft | 464 kts | 276° |
| 2026-05-07 13:06 | 24.63461 | 111.19103 | 32149 ft | 464 kts | 276° |
| 2026-05-07 13:06 | 24.65887 | 110.90868 | 32149 ft | 463 kts | 276° |
| 2026-05-07 13:07 | 24.68523 | 110.77158 | 32139 ft | 462 kts | 298° |
| 2026-05-07 13:07 | 24.77270 | 110.66792 | 32180 ft | 466 kts | 314° |
| 2026-05-07 13:07 | 24.96115 | 110.46983 | 32157 ft | 468 kts | 314° |
| 2026-05-07 13:08 | 25.14711 | 110.27331 | 32201 ft | 467 kts | 314° |
| 2026-05-07 13:08 | 25.33575 | 110.07517 | 32185 ft | 468 kts | 314° |
| 2026-05-07 13:09 | 25.52443 | 109.87690 | 32202 ft | 468 kts | 314° |
| 2026-05-07 13:09 | 25.71289 | 109.67792 | 32209 ft | 467 kts | 314° |
| 2026-05-07 13:10 | 25.78885 | 109.56425 | 32248 ft | 460 kts | 292° |
| 2026-05-07 13:10 | 25.82521 | 109.42843 | 32289 ft | 459 kts | 285° |
| 2026-05-07 13:10 | 25.89661 | 109.15497 | 32311 ft | 458 kts | 285° |
| 2026-05-07 13:11 | 25.93231 | 109.01819 | 32176 ft | 462 kts | 285° |
| 2026-05-07 13:11 | 25.96841 | 108.88153 | 32270 ft | 460 kts | 285° |
| 2026-05-07 13:11 | 26.04063 | 108.60870 | 32307 ft | 459 kts | 285° |
| 2026-05-07 13:12 | 26.12166 | 108.33857 | 32308 ft | 462 kts | 294° |
| 2026-05-07 13:12 | 26.23318 | 108.08169 | 32274 ft | 463 kts | 293° |
| 2026-05-07 13:13 | 26.34413 | 107.82294 | 32339 ft | 461 kts | 293° |
| 2026-05-07 13:13 | 26.45365 | 107.56597 | 32220 ft | 452 kts | 293° |
| 2026-05-07 13:14 | 26.56119 | 107.31422 | 32363 ft | 452 kts | 292° |
| 2026-05-07 13:14 | 26.67056 | 107.05462 | 32276 ft | 463 kts | 293° |
| 2026-05-07 13:15 | 26.72534 | 106.92581 | 32238 ft | 451 kts | 292° |
| 2026-05-07 13:15 | 26.78141 | 106.80159 | 32309 ft | 448 kts | 301° |
| 2026-05-07 13:15 | 26.86811 | 106.69916 | 32385 ft | 461 kts | 314° |
| 2026-05-07 13:15 | 26.96644 | 106.60409 | 32367 ft | 471 kts | 314° |
| 2026-05-07 13:16 | 27.16278 | 106.41081 | 32290 ft | 460 kts | 313° |
| 2026-05-07 13:16 | 27.35454 | 106.22375 | 32352 ft | 460 kts | 314° |
| 2026-05-07 13:17 | 27.45254 | 106.12803 | 32280 ft | 473 kts | 314° |
| 2026-05-07 13:17 | 27.55078 | 106.03198 | 32255 ft | 471 kts | 314° |
| 2026-05-07 13:17 | 27.73404 | 105.83069 | 32265 ft | 450 kts | 295° |
| 2026-05-07 13:18 | 27.77503 | 105.69942 | 32350 ft | 443 kts | 284° |
| 2026-05-07 13:18 | 27.81645 | 105.56786 | 32365 ft | 450 kts | 290° |
| 2026-05-07 13:18 | 27.92305 | 105.30549 | 32241 ft | 462 kts | 293° |
| 2026-05-07 13:19 | 27.98703 | 105.18125 | 32171 ft | 461 kts | 308° |
| 2026-05-07 13:19 | 28.09045 | 105.09493 | 32258 ft | 467 kts | 323° |
| 2026-05-07 13:19 | 28.31605 | 104.93821 | 32249 ft | 483 kts | 322° |
| 2026-05-07 13:20 | 28.54135 | 104.78040 | 32154 ft | 466 kts | 322° |
| 2026-05-07 13:20 | 28.65132 | 104.70308 | 32263 ft | 465 kts | 322° |
| 2026-05-07 13:20 | 28.76253 | 104.62474 | 32295 ft | 476 kts | 322° |
| 2026-05-07 13:21 | 28.98933 | 104.46402 | 32249 ft | 476 kts | 321° |
| 2026-05-07 13:21 | 29.20955 | 104.30674 | 32320 ft | 463 kts | 321° |
| 2026-05-07 13:22 | 29.33781 | 104.27011 | 32351 ft | 513 kts | 0° |
| 2026-05-07 13:22 | 29.48120 | 104.29689 | 32172 ft | 528 kts | 2° |
| 2026-05-07 13:22 | 29.62532 | 104.32217 | 32189 ft | 516 kts | 1° |
| 2026-05-07 13:22 | 29.76584 | 104.34599 | 32221 ft | 505 kts | 1° |
| 2026-05-07 13:23 | 29.90494 | 104.36973 | 32338 ft | 509 kts | 1° |
| 2026-05-07 13:23 | 30.04697 | 104.39412 | 32258 ft | 521 kts | 1° |
| 2026-05-07 13:23 | 30.33274 | 104.44387 | 32122 ft | 513 kts | 2° |
| 2026-05-07 13:24 | 30.61128 | 104.48359 | 32339 ft | 494 kts | 346° |
| 2026-05-07 13:24 | 30.74202 | 104.44035 | 32214 ft | 495 kts | 334° |
| 2026-05-07 13:24 | 30.87403 | 104.39395 | 32283 ft | 500 kts | 343° |
| 2026-05-07 13:25 | 31.15213 | 104.38265 | 32288 ft | 495 kts | 352° |
| 2026-05-07 13:25 | 31.38160 | 104.37267 | 32348 ft | 506 kts | 350° |
| 2026-05-07 13:26 | 31.70845 | 104.35356 | 32290 ft | 496 kts | 350° |
| 2026-05-07 13:26 | 31.80088 | 104.34820 | 32481 ft | 491 kts | 350° |
| 2026-05-07 13:26 | 31.93938 | 104.34112 | 32553 ft | 503 kts | 351° |
| 2026-05-07 13:27 | 32.08106 | 104.33398 | 32455 ft | 514 kts | 352° |
| 2026-05-07 13:27 | 32.22142 | 104.32671 | 32516 ft | 507 kts | 352° |
| 2026-05-07 13:27 | 32.49980 | 104.31245 | 32495 ft | 500 kts | 352° |
| 2026-05-07 13:28 | 32.64050 | 104.30542 | 32565 ft | 511 kts | 352° |
| 2026-05-07 13:28 | 32.78389 | 104.29866 | 32469 ft | 517 kts | 352° |
| 2026-05-07 13:28 | 33.06747 | 104.28504 | 32333 ft | 502 kts | 351° |
| 2026-05-07 13:29 | 33.20681 | 104.27824 | 32466 ft | 502 kts | 351° |
| 2026-05-07 13:29 | 33.34694 | 104.26531 | 32467 ft | 503 kts | 339° |
| 2026-05-07 13:29 | 33.47021 | 104.19445 | 32404 ft | 488 kts | 323° |
| 2026-05-07 13:29 | 33.59030 | 104.12157 | 32401 ft | 490 kts | 339° |
| 2026-05-07 13:30 | 33.72798 | 104.11034 | 32488 ft | 502 kts | 355° |
| 2026-05-07 13:30 | 33.86838 | 104.11199 | 32565 ft | 507 kts | 354° |
| 2026-05-07 13:30 | 34.15146 | 104.11198 | 32345 ft | 505 kts | 354° |
| 2026-05-07 13:31 | 34.29040 | 104.11204 | 32379 ft | 491 kts | 354° |
| 2026-05-07 13:31 | 34.42753 | 104.11195 | 32533 ft | 495 kts | 354° |
| 2026-05-07 13:31 | 34.56724 | 104.11190 | 32387 ft | 508 kts | 354° |
| 2026-05-07 13:31 | 34.70813 | 104.11201 | 32487 ft | 501 kts | 354° |
| 2026-05-07 13:32 | 34.98225 | 104.11200 | 32521 ft | 490 kts | 354° |
| 2026-05-07 13:32 | 35.26144 | 104.11197 | 32492 ft | 505 kts | 354° |
| 2026-05-07 13:33 | 35.40092 | 104.11202 | 32363 ft | 497 kts | 354° |
| 2026-05-07 13:33 | 35.53786 | 104.11208 | 32380 ft | 486 kts | 354° |
| 2026-05-07 13:33 | 35.67165 | 104.11251 | 32486 ft | 490 kts | 354° |
| 2026-05-07 13:33 | 35.80960 | 104.11292 | 32478 ft | 500 kts | 355° |
| 2026-05-07 13:34 | 35.94832 | 104.10055 | 32324 ft | 498 kts | 349° |
| 2026-05-07 13:34 | 36.21785 | 104.07076 | 32466 ft | 479 kts | 349° |
| 2026-05-07 13:34 | 36.35215 | 104.05599 | 32602 ft | 487 kts | 349° |
| 2026-05-07 13:35 | 36.48926 | 104.04095 | 32389 ft | 498 kts | 349° |
| 2026-05-07 13:35 | 36.61752 | 104.00006 | 32374 ft | 460 kts | 315° |
| 2026-05-07 13:35 | 36.68530 | 103.87074 | 32465 ft | 449 kts | 295° |
| 2026-05-07 13:36 | 36.80560 | 103.59023 | 32447 ft | 459 kts | 295° |
| 2026-05-07 13:36 | 36.92423 | 103.31394 | 32479 ft | 447 kts | 295° |
| 2026-05-07 13:37 | 37.05755 | 103.04457 | 32472 ft | 460 kts | 299° |
| 2026-05-07 13:37 | 37.12562 | 102.90860 | 32360 ft | 461 kts | 299° |
| 2026-05-07 13:37 | 37.19292 | 102.77362 | 32359 ft | 450 kts | 298° |
| 2026-05-07 13:38 | 37.32483 | 102.50730 | 32609 ft | 455 kts | 298° |
| 2026-05-07 13:38 | 37.37457 | 102.36044 | 32506 ft | 459 kts | 282° |
| 2026-05-07 13:38 | 37.40456 | 102.20511 | 32464 ft | 455 kts | 282° |
| 2026-05-07 13:39 | 37.46380 | 101.90139 | 32467 ft | 444 kts | 282° |
| 2026-05-07 13:39 | 37.54019 | 101.60163 | 32458 ft | 463 kts | 295° |
| 2026-05-07 13:40 | 37.66069 | 101.31982 | 32439 ft | 449 kts | 295° |
| 2026-05-07 13:40 | 37.77830 | 101.04022 | 32455 ft | 457 kts | 295° |
| 2026-05-07 13:41 | 37.90175 | 100.75555 | 32365 ft | 461 kts | 296° |
| 2026-05-07 13:41 | 37.96422 | 100.61566 | 32411 ft | 449 kts | 296° |
| 2026-05-07 13:41 | 38.02480 | 100.47875 | 32403 ft | 444 kts | 296° |
| 2026-05-07 13:41 | 38.08546 | 100.34094 | 32504 ft | 450 kts | 296° |
| 2026-05-07 13:42 | 38.14717 | 100.20023 | 32415 ft | 461 kts | 296° |
| 2026-05-07 13:42 | 38.27061 | 99.91709 | 32432 ft | 449 kts | 296° |
| 2026-05-07 13:43 | 38.39064 | 99.63909 | 32592 ft | 453 kts | 296° |
| 2026-05-07 13:43 | 38.51332 | 99.35252 | 32490 ft | 462 kts | 296° |
| 2026-05-07 13:44 | 38.63423 | 99.06753 | 32442 ft | 450 kts | 295° |
| 2026-05-07 13:44 | 38.75484 | 98.78049 | 32554 ft | 468 kts | 295° |
| 2026-05-07 13:45 | 38.87674 | 98.48790 | 32436 ft | 459 kts | 295° |
| 2026-05-07 13:45 | 38.99568 | 98.19950 | 32491 ft | 463 kts | 294° |
| 2026-05-07 13:46 | 39.11665 | 97.90357 | 32443 ft | 466 kts | 294° |
| 2026-05-07 13:46 | 39.17595 | 97.75747 | 32394 ft | 455 kts | 294° |
| 2026-05-07 13:46 | 39.23419 | 97.61318 | 32474 ft | 454 kts | 294° |
| 2026-05-07 13:47 | 39.35359 | 97.31705 | 32418 ft | 471 kts | 294° |
| 2026-05-07 13:47 | 39.41295 | 97.16876 | 32395 ft | 457 kts | 294° |
| 2026-05-07 13:47 | 39.47092 | 97.02322 | 32422 ft | 451 kts | 294° |
| 2026-05-07 13:48 | 39.58882 | 96.72898 | 32447 ft | 470 kts | 294° |
| 2026-05-07 13:48 | 39.70635 | 96.43163 | 32308 ft | 455 kts | 293° |
| 2026-05-07 13:49 | 39.82063 | 96.13851 | 32432 ft | 461 kts | 293° |
| 2026-05-07 13:49 | 39.87896 | 95.98791 | 32327 ft | 469 kts | 292° |
| 2026-05-07 13:49 | 39.93733 | 95.83655 | 32264 ft | 459 kts | 292° |
| 2026-05-07 13:50 | 40.04953 | 95.54309 | 32293 ft | 453 kts | 291° |
| 2026-05-07 13:50 | 40.16334 | 95.24254 | 32230 ft | 461 kts | 291° |
| 2026-05-07 13:50 | 40.21945 | 95.09391 | 32163 ft | 450 kts | 292° |
| 2026-05-07 13:51 | 40.27517 | 94.94819 | 32210 ft | 447 kts | 291° |
| 2026-05-07 13:51 | 40.34100 | 94.80761 | 32230 ft | 464 kts | 303° |
| 2026-05-07 13:51 | 40.42273 | 94.67417 | 32219 ft | 472 kts | 303° |
| 2026-05-07 13:52 | 40.58401 | 94.40604 | 32198 ft | 462 kts | 303° |
| 2026-05-07 13:52 | 40.74282 | 94.13952 | 32232 ft | 474 kts | 305° |
| 2026-05-07 13:53 | 40.90692 | 93.86179 | 32211 ft | 476 kts | 306° |
| 2026-05-07 13:53 | 41.07699 | 93.59699 | 32360 ft | 474 kts | 309° |
| 2026-05-07 13:53 | 41.16355 | 93.46187 | 32285 ft | 487 kts | 309° |
| 2026-05-07 13:54 | 41.25137 | 93.32420 | 32119 ft | 484 kts | 309° |
| 2026-05-07 13:54 | 41.33731 | 93.18889 | 32122 ft | 473 kts | 310° |
| 2026-05-07 13:54 | 41.42185 | 93.05519 | 32341 ft | 475 kts | 310° |
| 2026-05-07 13:54 | 41.50799 | 92.91835 | 32324 ft | 488 kts | 310° |
| 2026-05-07 13:55 | 41.59547 | 92.77871 | 32273 ft | 490 kts | 311° |
| 2026-05-07 13:55 | 41.68224 | 92.63957 | 32169 ft | 481 kts | 311° |
| 2026-05-07 13:55 | 41.76695 | 92.50312 | 32189 ft | 473 kts | 311° |
| 2026-05-07 13:56 | 41.93691 | 92.22750 | 32197 ft | 487 kts | 310° |
| 2026-05-07 13:56 | 42.10707 | 91.94891 | 32135 ft | 474 kts | 310° |
| 2026-05-07 13:57 | 42.27955 | 91.68131 | 32218 ft | 479 kts | 318° |
| 2026-05-07 13:57 | 42.47446 | 91.43308 | 32096 ft | 475 kts | 317° |
| 2026-05-07 13:58 | 42.66268 | 91.18962 | 32187 ft | 471 kts | 317° |
| 2026-05-07 13:58 | 42.75844 | 91.06494 | 32145 ft | 482 kts | 317° |
| 2026-05-07 13:58 | 42.85494 | 90.93873 | 32046 ft | 478 kts | 316° |
| 2026-05-07 13:58 | 42.93516 | 90.79446 | 32100 ft | 467 kts | 302° |
| 2026-05-07 13:59 | 43.00283 | 90.64350 | 32213 ft | 466 kts | 303° |
| 2026-05-07 13:59 | 43.14151 | 90.33557 | 32144 ft | 478 kts | 303° |
| 2026-05-07 14:00 | 43.27732 | 90.03130 | 32317 ft | 466 kts | 303° |
| 2026-05-07 14:00 | 43.41478 | 89.72048 | 32256 ft | 483 kts | 303° |
| 2026-05-07 14:01 | 43.55073 | 89.40978 | 32338 ft | 466 kts | 303° |
| 2026-05-07 14:01 | 43.68885 | 89.09886 | 32328 ft | 484 kts | 303° |
| 2026-05-07 14:02 | 43.82801 | 88.78246 | 32310 ft | 472 kts | 303° |
| 2026-05-07 14:02 | 43.96376 | 88.47062 | 32337 ft | 479 kts | 303° |
| 2026-05-07 14:03 | 44.10195 | 88.14951 | 32152 ft | 480 kts | 303° |
| 2026-05-07 14:03 | 44.16934 | 87.99187 | 32147 ft | 468 kts | 304° |
| 2026-05-07 14:03 | 44.24694 | 87.84629 | 32228 ft | 471 kts | 309° |
| 2026-05-07 14:04 | 44.40829 | 87.54983 | 32151 ft | 477 kts | 310° |
| 2026-05-07 14:04 | 44.56552 | 87.26266 | 32162 ft | 463 kts | 310° |
| 2026-05-07 14:05 | 44.73141 | 86.97670 | 32152 ft | 475 kts | 311° |
| 2026-05-07 14:05 | 44.86840 | 86.73756 | 32086 ft | 461 kts | 310° |
| 2026-05-07 14:06 | 45.02716 | 86.45324 | 32227 ft | 467 kts | 310° |
| 2026-05-07 14:06 | 45.18861 | 86.16152 | 32058 ft | 465 kts | 310° |
| 2026-05-07 14:07 | 45.34526 | 85.87565 | 32196 ft | 459 kts | 309° |
| 2026-05-07 14:07 | 45.42431 | 85.73029 | 32126 ft | 470 kts | 309° |
| 2026-05-07 14:07 | 45.50402 | 85.58290 | 32097 ft | 467 kts | 309° |
| 2026-05-07 14:08 | 45.65913 | 85.29391 | 32111 ft | 455 kts | 308° |
| 2026-05-07 14:08 | 45.81454 | 85.00309 | 32150 ft | 468 kts | 308° |
| 2026-05-07 14:09 | 45.96982 | 84.70994 | 32148 ft | 454 kts | 308° |
| 2026-05-07 14:09 | 46.12386 | 84.41610 | 32174 ft | 465 kts | 307° |
| 2026-05-07 14:09 | 46.20098 | 84.26780 | 32016 ft | 465 kts | 307° |
| 2026-05-07 14:10 | 46.27743 | 84.12000 | 32133 ft | 452 kts | 306° |
| 2026-05-07 14:10 | 46.42751 | 83.82584 | 32253 ft | 462 kts | 306° |
| 2026-05-07 14:10 | 46.50429 | 83.67418 | 32149 ft | 463 kts | 306° |
| 2026-05-07 14:11 | 46.57973 | 83.52436 | 32080 ft | 454 kts | 305° |
| 2026-05-07 14:11 | 46.65339 | 83.37727 | 32222 ft | 450 kts | 304° |
| 2026-05-07 14:11 | 46.72163 | 83.22184 | 32182 ft | 459 kts | 301° |
| 2026-05-07 14:12 | 46.85395 | 82.90355 | 32116 ft | 456 kts | 291° |
| 2026-05-07 14:12 | 46.88239 | 82.72603 | 32203 ft | 446 kts | 278° |
| 2026-05-07 14:12 | 46.90012 | 82.54526 | 32329 ft | 451 kts | 278° |
| 2026-05-07 14:13 | 46.93701 | 82.17487 | 32094 ft | 461 kts | 278° |
| 2026-05-07 14:13 | 46.97203 | 81.80932 | 32213 ft | 452 kts | 278° |
| 2026-05-07 14:14 | 47.00592 | 81.43720 | 32177 ft | 467 kts | 278° |
| 2026-05-07 14:14 | 47.03827 | 81.06909 | 32188 ft | 449 kts | 277° |
| 2026-05-07 14:14 | 47.05384 | 80.88710 | 32306 ft | 452 kts | 277° |
| 2026-05-07 14:15 | 47.06945 | 80.70135 | 32292 ft | 463 kts | 277° |
| 2026-05-07 14:15 | 47.08498 | 80.51286 | 32155 ft | 463 kts | 277° |
| 2026-05-07 14:15 | 47.09997 | 80.32704 | 32096 ft | 455 kts | 277° |
| 2026-05-07 14:16 | 47.12881 | 79.95845 | 32245 ft | 462 kts | 277° |
| 2026-05-07 14:16 | 47.14331 | 79.76839 | 32122 ft | 472 kts | 277° |
| 2026-05-07 14:16 | 47.15775 | 79.57788 | 32027 ft | 465 kts | 277° |
| 2026-05-07 14:16 | 47.17154 | 79.39122 | 32135 ft | 453 kts | 277° |
| 2026-05-07 14:17 | 47.18496 | 79.20595 | 32263 ft | 459 kts | 277° |
| 2026-05-07 14:17 | 47.19819 | 79.01699 | 32356 ft | 470 kts | 276° |
| 2026-05-07 14:17 | 47.21129 | 78.82374 | 32108 ft | 474 kts | 276° |
| 2026-05-07 14:17 | 47.22395 | 78.63259 | 31940 ft | 463 kts | 276° |
| 2026-05-07 14:18 | 47.23596 | 78.44657 | 32158 ft | 453 kts | 276° |
| 2026-05-07 14:18 | 47.25933 | 78.07027 | 32185 ft | 472 kts | 275° |
| 2026-05-07 14:19 | 47.28172 | 77.68931 | 32113 ft | 458 kts | 275° |
| 2026-05-07 14:19 | 47.30255 | 77.31334 | 32157 ft | 469 kts | 274° |
| 2026-05-07 14:20 | 47.32828 | 76.93272 | 32057 ft | 460 kts | 278° |
| 2026-05-07 14:20 | 47.36589 | 76.56202 | 32243 ft | 460 kts | 277° |
| 2026-05-07 14:20 | 47.38430 | 76.37293 | 32144 ft | 471 kts | 277° |
| 2026-05-07 14:21 | 47.40238 | 76.18430 | 32146 ft | 466 kts | 277° |
| 2026-05-07 14:21 | 47.42019 | 75.99492 | 33391 ft | 461 kts | 277° |
| 2026-05-07 14:21 | 47.43755 | 75.80683 | 33987 ft | 464 kts | 277° |
| 2026-05-07 14:22 | 47.47126 | 75.43154 | 33899 ft | 452 kts | 276° |
| 2026-05-07 14:22 | 47.48721 | 75.24898 | 34028 ft | 442 kts | 275° |
| 2026-05-07 14:22 | 47.50267 | 75.06840 | 34221 ft | 444 kts | 275° |
| 2026-05-07 14:22 | 47.51809 | 74.88467 | 34210 ft | 457 kts | 275° |
| 2026-05-07 14:23 | 47.53366 | 74.69584 | 33956 ft | 460 kts | 275° |
| 2026-05-07 14:23 | 47.54872 | 74.50934 | 33781 ft | 449 kts | 274° |
| 2026-05-07 14:23 | 47.56308 | 74.32770 | 33920 ft | 440 kts | 274° |
| 2026-05-07 14:23 | 47.57711 | 74.14627 | 34149 ft | 448 kts | 274° |
| 2026-05-07 14:24 | 47.59127 | 73.95917 | 33970 ft | 461 kts | 274° |
| 2026-05-07 14:24 | 47.61882 | 73.58354 | 33774 ft | 453 kts | 274° |
| 2026-05-07 14:25 | 47.64435 | 73.21863 | 34094 ft | 451 kts | 275° |
| 2026-05-07 14:25 | 47.65701 | 73.03120 | 33939 ft | 462 kts | 275° |
| 2026-05-07 14:25 | 47.66947 | 72.84209 | 33854 ft | 456 kts | 275° |
| 2026-05-07 14:25 | 47.68135 | 72.65717 | 33879 ft | 443 kts | 275° |
| 2026-05-07 14:26 | 47.69270 | 72.47581 | 34042 ft | 443 kts | 275° |
| 2026-05-07 14:26 | 47.70390 | 72.29218 | 34200 ft | 451 kts | 275° |
| 2026-05-07 14:26 | 47.71507 | 72.10383 | 34046 ft | 460 kts | 275° |
| 2026-05-07 14:26 | 47.72589 | 71.91661 | 33898 ft | 448 kts | 275° |
| 2026-05-07 14:27 | 47.73521 | 71.73543 | 33990 ft | 434 kts | 274° |
| 2026-05-07 14:27 | 47.74953 | 71.37367 | 33940 ft | 446 kts | 274° |
| 2026-05-07 14:28 | 47.76327 | 71.00670 | 33928 ft | 436 kts | 273° |
| 2026-05-07 14:28 | 47.77549 | 70.65087 | 33978 ft | 432 kts | 272° |
| 2026-05-07 14:28 | 47.78122 | 70.47127 | 34124 ft | 438 kts | 272° |
| 2026-05-07 14:29 | 47.78678 | 70.28842 | 34055 ft | 444 kts | 272° |
| 2026-05-07 14:29 | 47.79205 | 70.10603 | 33799 ft | 438 kts | 271° |
| 2026-05-07 14:29 | 47.79693 | 69.92716 | 33810 ft | 427 kts | 271° |
| 2026-05-07 14:29 | 47.80146 | 69.75119 | 33998 ft | 428 kts | 270° |
| 2026-05-07 14:30 | 47.80576 | 69.57234 | 34123 ft | 437 kts | 270° |
| 2026-05-07 14:30 | 47.80992 | 69.38842 | 33921 ft | 447 kts | 270° |
| 2026-05-07 14:30 | 47.81378 | 69.20540 | 33824 ft | 439 kts | 270° |
| 2026-05-07 14:31 | 47.82044 | 68.84814 | 33983 ft | 433 kts | 268° |
| 2026-05-07 14:31 | 47.80776 | 68.66821 | 33852 ft | 446 kts | 260° |
| 2026-05-07 14:31 | 47.79057 | 68.48468 | 33744 ft | 447 kts | 261° |
| 2026-05-07 14:31 | 47.77364 | 68.30392 | 33746 ft | 436 kts | 260° |
| 2026-05-07 14:32 | 47.75679 | 68.12755 | 33909 ft | 427 kts | 259° |
| 2026-05-07 14:32 | 47.73973 | 67.95188 | 34041 ft | 434 kts | 259° |
| 2026-05-07 14:32 | 47.72194 | 67.77179 | 34012 ft | 445 kts | 259° |
| 2026-05-07 14:32 | 47.69608 | 67.59234 | 33846 ft | 442 kts | 256° |